Time;durP1;ratioP1;P1;durP2;ratioP2;P2;SDS_P1;SDS_P2;PMS_P1;PMS_P2;Temp;Humidity;BMP_temperature;BMP_pressure;BME280_temperature;BME280_humidity;BME280_pressure;Samples;Min_cycle;Max_cycle;Signal;HPM_P1;HPM_P2
2022/05/25 00:01:44;;;;;;;30.00;27.40;;;;;;;18.44;100.00;99275.22;5092509;28;20192;-57
2022/05/25 00:04:13;;;;;;;29.73;26.90;;;;;;;18.53;100.00;99276.41;5092210;28;20219;-56
2022/05/25 00:06:40;;;;;;;28.57;26.03;;;;;;;18.51;100.00;99275.66;5091786;28;20609;-58
2022/05/25 00:09:07;;;;;;;29.00;26.50;;;;;;;18.51;100.00;99286.19;5092090;28;20191;-55
2022/05/25 00:11:35;;;;;;;29.45;26.90;;;;;;;18.52;100.00;99286.06;5092287;28;20203;-55
2022/05/25 00:14:03;;;;;;;28.53;26.33;;;;;;;18.48;100.00;99283.75;5092181;28;20655;-55
2022/05/25 00:16:29;;;;;;;28.50;26.07;;;;;;;18.30;100.00;99270.00;5091391;28;20202;-55
2022/05/25 00:21:41;;;;;;;27.87;25.77;;;;;;;18.24;100.00;99275.66;5092246;28;20244;-56
2022/05/25 00:24:08;;;;;;;29.02;26.73;;;;;;;18.37;100.00;99294.97;5091853;28;20305;-56
2022/05/25 00:26:36;;;;;;;27.02;24.88;;;;;;;18.46;100.00;99294.38;5092056;28;20286;-56
2022/05/25 00:29:04;;;;;;;27.03;24.83;;;;;;;18.51;100.00;99291.44;5092125;28;20683;-55
2022/05/25 00:31:31;;;;;;;27.45;25.27;;;;;;;18.51;100.00;99297.53;5092277;28;20219;-55
2022/05/25 00:33:59;;;;;;;25.08;23.17;;;;;;;18.58;100.00;99295.41;5092024;28;20636;-56
2022/05/25 00:36:26;;;;;;;25.37;23.30;;;;;;;18.61;100.00;99300.47;5091338;28;20199;-55
2022/05/25 00:38:53;;;;;;;25.45;23.55;;;;;;;18.61;100.00;99292.59;5090103;28;20200;-55
2022/05/25 00:41:24;;;;;;;24.02;22.27;;;;;;;18.44;100.00;99282.28;5091046;28;20282;-55
2022/05/25 00:43:52;;;;;;;23.48;21.75;;;;;;;18.52;100.00;99295.75;5091641;28;20280;-55
2022/05/25 00:46:21;;;;;;;25.80;23.57;;;;;;;18.47;100.00;99292.59;5091051;28;20223;-56
2022/05/25 00:48:53;;;;;;;25.47;23.27;;;;;;;18.48;100.00;99295.13;5091129;28;20316;-56
2022/05/25 00:51:26;;;;;;;23.80;21.73;;;;;;;18.44;100.00;99298.88;5088893;28;20188;-56
2022/05/25 00:53:57;;;;;;;22.23;20.20;;;;;;;18.45;100.00;99297.09;5090626;28;20214;-56
2022/05/25 00:56:27;;;;;;;22.40;20.80;;;;;;;18.43;100.00;99302.44;5090109;28;20282;-55
2022/05/25 00:59:00;;;;;;;22.47;20.77;;;;;;;18.45;100.00;99304.97;5090643;28;20196;-55
2022/05/25 01:01:28;;;;;;;22.90;20.97;;;;;;;18.29;100.00;99296.38;5091230;28;20282;-56
2022/05/25 01:03:55;;;;;;;25.17;23.00;;;;;;;18.41;100.00;99308.72;5091361;28;20215;-56
2022/05/25 01:06:51;;;;;;;23.43;21.50;;;;;;;18.38;100.00;99306.31;5091434;28;20298;-55
2022/05/25 01:09:28;;;;;;;22.70;21.10;;;;;;;18.37;100.00;99308.09;5084631;28;20199;-56
2022/05/25 01:12:15;;;;;;;23.43;21.43;;;;;;;18.40;100.00;99312.31;5091318;28;20198;-55
2022/05/25 01:15:00;;;;;;;23.90;21.97;;;;;;;18.33;100.00;99311.88;5091479;28;20191;-62
2022/05/25 01:17:42;;;;;;;23.60;21.70;;;;;;;18.25;100.00;99315.94;5089395;28;20285;-62
2022/05/25 01:20:16;;;;;;;24.80;22.47;;;;;;;18.25;100.00;99318.56;5091068;28;20209;-62
2022/05/25 01:23:22;;;;;;;21.70;20.10;;;;;;;18.21;100.00;99323.16;5090743;28;20319;-63
2022/05/25 01:26:26;;;;;;;22.20;20.50;;;;;;;18.13;100.00;99334.16;5089745;28;20206;-63
2022/05/25 01:29:06;;;;;;;21.07;19.57;;;;;;;18.12;100.00;99326.34;5090748;28;20257;-63
2022/05/25 01:31:41;;;;;;;22.07;20.13;;;;;;;18.10;100.00;99336.97;5091229;28;20343;-64
2022/05/25 01:34:14;;;;;;;22.83;20.90;;;;;;;18.13;100.00;99331.53;5090892;28;20193;-64
2022/05/25 01:36:48;;;;;;;21.83;20.07;;;;;;;18.24;100.00;99340.50;5090701;28;20611;-63
2022/05/25 01:39:22;;;;;;;22.90;20.90;;;;;;;18.21;100.00;99338.06;5090415;28;20199;-62
2022/05/25 01:41:57;;;;;;;23.07;21.27;;;;;;;18.25;100.00;99342.19;5090793;28;20195;-62
2022/05/25 01:44:28;;;;;;;28.53;25.83;;;;;;;18.16;100.00;99338.38;5090544;28;20309;-62
2022/05/25 01:47:01;;;;;;;28.20;25.80;;;;;;;18.18;100.00;99338.25;5090744;28;20200;-63
2022/05/25 01:49:46;;;;;;;29.30;26.63;;;;;;;18.17;100.00;99341.84;5090481;28;20206;-55
2022/05/25 01:52:17;;;;;;;27.90;25.30;;;;;;;18.14;100.00;99342.88;5090367;28;20205;-55
2022/05/25 01:54:51;;;;;;;27.60;25.03;;;;;;;18.12;100.00;99350.00;5090459;28;20191;-55
2022/05/25 01:57:22;;;;;;;24.73;22.90;;;;;;;18.07;100.00;99341.53;5090445;28;20214;-55
2022/05/25 01:59:49;;;;;;;22.37;20.60;;;;;;;17.94;100.00;99336.25;5090382;28;20213;-56
2022/05/25 02:05:08;;;;;;;21.03;19.03;;;;;;;17.90;100.00;99334.72;5090158;28;20194;-56
2022/05/25 02:08:05;;;;;;;20.17;18.23;;;;;;;17.97;100.00;99350.94;5090467;28;20581;-56
2022/05/25 02:10:46;;;;;;;19.40;17.67;;;;;;;17.94;100.00;99353.78;5090167;28;20211;-56
2022/05/25 02:13:29;;;;;;;19.17;17.17;;;;;;;17.87;100.00;99369.03;5090320;28;20675;-56
2022/05/25 02:16:06;;;;;;;18.10;14.47;;;;;;;17.80;100.00;99365.13;5090146;28;20198;-56
2022/05/25 02:18:41;;;;;;;15.67;12.73;;;;;;;17.72;100.00;99369.97;5090101;28;20209;-56
2022/05/25 02:21:14;;;;;;;11.17;10.10;;;;;;;17.51;100.00;99360.72;5090423;28;20607;-56
2022/05/25 02:23:49;;;;;;;9.97;9.33;;;;;;;17.61;100.00;99377.59;5090221;28;20223;-63
2022/05/25 02:26:20;;;;;;;11.27;9.03;;;;;;;17.42;100.00;99370.00;5089981;28;20191;-56
2022/05/25 02:28:56;;;;;;;11.00;9.70;;;;;;;17.49;100.00;99376.59;5092075;28;20584;-56
2022/05/25 02:31:28;;;;;;;10.07;9.03;;;;;;;17.41;100.00;99374.38;5096509;28;20194;-56
2022/05/25 02:34:01;;;;;;;9.47;8.67;;;;;;;17.40;100.00;99380.56;5096981;28;20583;-65
2022/05/25 02:36:30;;;;;;;10.63;9.73;;;;;;;17.44;100.00;99381.25;5096783;28;20217;-63
2022/05/25 02:38:57;;;;;;;11.90;9.43;;;;;;;17.37;100.00;99386.03;5096516;28;20195;-63
2022/05/25 02:41:30;;;;;;;9.97;9.10;;;;;;;17.39;100.00;99373.63;5096681;28;20717;-63
2022/05/25 02:43:58;;;;;;;10.17;9.13;;;;;;;17.39;100.00;99384.13;5096492;28;20234;-62
2022/05/25 02:46:25;;;;;;;10.73;9.73;;;;;;;17.36;100.00;99386.09;5096538;28;20233;-62
2022/05/25 02:48:52;;;;;;;11.13;9.90;;;;;;;17.31;100.00;99394.22;5096500;28;20198;-62
2022/05/25 02:51:21;;;;;;;10.63;9.53;;;;;;;17.36;100.00;99391.34;5096474;28;20278;-56
2022/05/25 02:53:48;;;;;;;10.07;9.20;;;;;;;17.34;100.00;99394.06;5096583;28;20701;-55
2022/05/25 02:56:15;;;;;;;12.00;9.87;;;;;;;17.29;100.00;99396.09;5096340;28;20191;-56
2022/05/25 02:58:42;;;;;;;12.67;11.00;;;;;;;17.32;100.00;99401.16;5096815;28;20201;-56
2022/05/25 03:01:09;;;;;;;13.17;11.87;;;;;;;17.29;100.00;99403.13;5096475;28;20197;-56
2022/05/25 03:03:38;;;;;;;16.37;14.87;;;;;;;17.32;100.00;99406.41;5096334;28;20215;-56
2022/05/25 03:06:06;;;;;;;18.07;16.10;;;;;;;17.26;100.00;99411.19;5096466;28;20191;-63
2022/05/25 03:08:35;;;;;;;19.87;16.87;;;;;;;17.33;100.00;99408.09;5096402;28;20199;-62
2022/05/25 03:11:03;;;;;;;21.20;15.97;;;;;;;17.23;100.00;99401.72;5086988;28;20243;-54
2022/05/25 03:13:30;;;;;;;17.97;15.93;;;;;;;17.37;100.00;99407.00;5075383;28;20346;-54
2022/05/25 03:15:58;;;;;;;19.90;14.30;;;;;;;17.26;100.00;99406.78;5075507;28;20220;-62
2022/05/25 03:18:25;;;;;;;18.07;12.50;;;;;;;17.19;100.00;99413.31;5074433;28;20255;-62
2022/05/25 03:20:52;;;;;;;12.40;11.10;;;;;;;17.14;100.00;99417.13;5075383;28;20281;-62
2022/05/25 03:23:19;;;;;;;11.60;10.47;;;;;;;17.06;100.00;99414.94;5084994;28;20222;-62
2022/05/25 03:25:49;;;;;;;10.90;9.20;;;;;;;17.08;100.00;99418.31;5095028;28;20223;-54
2022/05/25 03:28:16;;;;;;;10.43;9.33;;;;;;;17.09;100.00;99427.88;5095101;28;20223;-54
2022/05/25 03:30:45;;;;;;;12.37;8.63;;;;;;;17.11;100.00;99433.88;5095684;28;20222;-61
2022/05/25 03:33:13;;;;;;;10.23;8.73;;;;;;;17.16;100.00;99430.97;5094697;28;20230;-61
2022/05/25 03:35:41;;;;;;;15.20;9.17;;;;;;;17.15;100.00;99440.66;5095663;28;20226;-62
2022/05/25 03:38:08;;;;;;;12.00;9.20;;;;;;;17.16;100.00;99444.94;5095166;28;20245;-61
2022/05/25 03:40:35;;;;;;;15.50;10.07;;;;;;;17.16;100.00;99441.47;5092193;28;20231;-54
2022/05/25 03:43:05;;;;;;;11.53;9.40;;;;;;;17.16;100.00;99447.56;5088345;28;20218;-62
2022/05/25 03:45:32;;;;;;;14.83;8.87;;;;;;;17.13;100.00;99445.13;5090436;28;20226;-63
2022/05/25 03:47:59;;;;;;;11.40;8.77;;;;;;;17.13;100.00;99453.00;5091368;28;20227;-55
2022/05/25 03:50:26;;;;;;;14.20;9.90;;;;;;;17.17;100.00;99451.88;5089169;28;20225;-62
2022/05/25 03:52:53;;;;;;;12.97;9.53;;;;;;;17.09;100.00;99451.47;5090888;28;20710;-62
2022/05/25 03:55:21;;;;;;;16.37;10.17;;;;;;;17.12;100.00;99456.56;5088776;28;20223;-62
2022/05/25 03:57:48;;;;;;;19.07;10.47;;;;;;;17.10;100.00;99455.78;5088044;28;20249;-54
2022/05/25 04:00:17;;;;;;;18.20;10.37;;;;;;;17.17;100.00;99459.75;5088947;28;20770;-53
2022/05/25 04:02:45;;;;;;;20.17;10.17;;;;;;;17.05;100.00;99461.28;5087782;28;20227;-54
2022/05/25 04:05:12;;;;;;;16.23;10.57;;;;;;;17.12;100.00;99464.44;5089514;28;20676;-54
2022/05/25 04:07:41;;;;;;;22.00;9.97;;;;;;;17.02;100.00;99464.09;5090347;28;20224;-54
2022/05/25 04:10:12;;;;;;;14.70;10.27;;;;;;;17.09;100.00;99475.06;5090121;28;20610;-54
2022/05/25 04:12:40;;;;;;;16.37;9.70;;;;;;;17.20;100.00;99477.94;5088298;28;20231;-54
2022/05/25 04:15:08;;;;;;;13.40;9.30;;;;;;;17.16;100.00;99479.03;5090262;28;20207;-62
2022/05/25 04:17:37;;;;;;;12.13;9.13;;;;;;;17.15;100.00;99469.50;5086665;28;20627;-62
2022/05/25 04:20:05;;;;;;;9.73;8.70;;;;;;;17.17;100.00;99477.25;5089793;28;20243;-62
2022/05/25 04:22:33;;;;;;;11.33;8.57;;;;;;;17.10;100.00;99470.69;5090012;28;20230;-62
2022/05/25 04:25:01;;;;;;;11.10;8.60;;;;;;;16.87;100.00;99454.47;5089245;28;20231;-60
2022/05/25 04:27:29;;;;;;;12.93;9.97;;;;;;;16.99;100.00;99463.41;5089167;28;20227;-60
2022/05/25 04:29:56;;;;;;;11.80;9.33;;;;;;;17.13;100.00;99473.97;5086559;28;20224;-60
2022/05/25 04:32:23;;;;;;;14.23;10.20;;;;;;;17.17;100.00;99485.97;5101565;28;20335;-60
2022/05/25 04:34:51;;;;;;;78.43;19.97;;;;;;;17.36;100.00;99485.81;5110312;28;20655;-61
2022/05/25 04:40:03;;;;;;;13.13;10.37;;;;;;;17.38;100.00;99473.44;5111538;28;20202;-61
2022/05/25 04:42:30;;;;;;;20.10;10.70;;;;;;;17.43;100.00;99492.38;5101285;28;20580;-62
2022/05/25 04:45:00;;;;;;;12.27;11.10;;;;;;;17.39;100.00;99482.97;5088911;28;20231;-63
2022/05/25 04:47:28;;;;;;;14.57;10.70;;;;;;;17.31;100.00;99477.34;5089734;28;20207;-62
2022/05/25 04:49:57;;;;;;;18.50;11.23;;;;;;;17.22;100.00;99476.09;5089852;28;20592;-63
2022/05/25 04:52:24;;;;;;;11.83;9.77;;;;;;;17.26;100.00;99490.72;5088438;28;20227;-60
2022/05/25 04:54:51;;;;;;;9.70;8.80;;;;;;;17.22;100.00;99493.59;5089062;28;20191;-62
2022/05/25 04:57:20;;;;;;;12.47;9.77;;;;;;;17.15;100.00;99493.09;5089364;28;20210;-62
2022/05/25 04:59:48;;;;;;;15.13;9.90;;;;;;;17.08;100.00;99485.66;5089143;28;20589;-62
2022/05/25 05:02:16;;;;;;;13.83;9.90;;;;;;;17.08;100.00;99501.38;5090068;28;20768;-63
2022/05/25 05:04:43;;;;;;;14.73;10.67;;;;;;;17.06;100.00;99509.34;5091028;28;20226;-62
2022/05/25 05:07:11;;;;;;;11.50;10.67;;;;;;;17.09;100.00;99513.56;5091078;28;20281;-63
2022/05/25 05:09:40;;;;;;;11.63;10.37;;;;;;;17.05;100.00;99512.88;5091525;28;20689;-63
2022/05/25 05:12:08;;;;;;;12.87;11.03;;;;;;;17.06;100.00;99520.66;5090475;28;20202;-62
2022/05/25 05:14:35;;;;;;;14.53;10.37;;;;;;;17.15;100.00;99524.59;5090963;28;20215;-62
2022/05/25 05:17:05;;;;;;;12.23;10.83;;;;;;;17.24;100.00;99524.06;5089229;28;20235;-62
2022/05/25 05:19:32;;;;;;;12.93;10.67;;;;;;;17.24;100.00;99524.06;5089601;28;20213;-63
2022/05/25 05:21:59;;;;;;;12.27;11.03;;;;;;;17.25;100.00;99522.28;5089228;28;20191;-62
2022/05/25 05:24:28;;;;;;;11.40;10.30;;;;;;;17.16;100.00;99526.25;5089585;28;20215;-63
2022/05/25 05:26:57;;;;;;;13.47;11.57;;;;;;;17.24;100.00;99523.22;5086997;28;20683;-62
2022/05/25 05:29:24;;;;;;;12.13;10.80;;;;;;;17.22;100.00;99517.22;5086183;28;20225;-60
2022/05/25 05:31:51;;;;;;;15.03;10.60;;;;;;;17.21;100.00;99521.59;5089247;27;20583;-61
2022/05/25 05:34:18;;;;;;;12.93;10.53;;;;;;;17.25;100.00;99528.38;5088573;28;20211;-62
2022/05/25 05:36:49;;;;;;;12.13;11.00;;;;;;;17.29;100.00;99529.88;5091133;28;20195;-63
2022/05/25 05:39:17;;;;;;;16.17;10.07;;;;;;;17.32;100.00;99536.75;5090311;28;20282;-63
2022/05/25 05:41:49;;;;;;;10.87;9.70;;;;;;;17.36;100.00;99538.28;5090420;28;20275;-63
2022/05/25 05:44:21;;;;;;;11.30;10.30;;;;;;;17.37;100.00;99532.09;5089775;28;20219;-64
2022/05/25 05:46:50;;;;;;;13.57;10.53;;;;;;;17.29;100.00;99532.50;5087797;28;20258;-63
2022/05/25 05:49:17;;;;;;;20.87;10.60;;;;;;;17.36;100.00;99535.66;5088959;28;20203;-61
2022/05/25 05:51:45;;;;;;;14.20;9.63;;;;;;;17.37;100.00;99535.56;5086982;28;20244;-60
2022/05/25 05:54:12;;;;;;;13.73;9.43;;;;;;;17.47;100.00;99528.03;5090056;28;20220;-63
2022/05/25 05:56:39;;;;;;;12.43;10.27;;;;;;;17.50;100.00;99534.84;5089967;28;20605;-65
2022/05/25 05:59:08;;;;;;;16.53;10.20;;;;;;;17.53;100.00;99537.31;5089913;28;20199;-63
2022/05/25 06:01:35;;;;;;;15.80;10.70;;;;;;;17.59;100.00;99529.94;5090010;28;20689;-62
2022/05/25 06:04:01;;;;;;;10.70;9.80;;;;;;;17.59;100.00;99513.34;5088849;28;20195;-63
2022/05/25 06:06:28;;;;;;;15.47;10.07;;;;;;;17.75;100.00;99527.28;5089563;28;20191;-63
2022/05/25 06:08:56;;;;;;;10.80;9.77;;;;;;;17.80;100.00;99529.66;5089092;28;20199;-63
2022/05/25 06:11:24;;;;;;;11.90;10.67;;;;;;;17.91;100.00;99540.41;5089010;28;20195;-63
2022/05/25 06:13:51;;;;;;;12.70;10.87;;;;;;;17.89;100.00;99532.59;5089588;28;20210;-63
2022/05/25 06:21:48;;;;;;;18.53;11.57;;;;;;;18.07;100.00;99543.78;5089400;28;20239;-63
2022/05/25 06:24:15;;;;;;;18.57;12.93;;;;;;;18.04;100.00;99544.00;5089997;28;20225;-63
2022/05/25 06:26:42;;;;;;;19.73;13.47;;;;;;;17.99;100.00;99549.50;5090246;28;20651;-64
2022/05/25 06:29:11;;;;;;;17.33;13.67;;;;;;;17.92;100.00;99544.72;5090105;28;20680;-63
2022/05/25 06:31:39;;;;;;;15.70;12.07;;;;;;;17.95;100.00;99540.09;5089997;28;20203;-63
2022/05/25 06:34:06;;;;;;;20.10;13.20;;;;;;;18.02;100.00;99544.09;5089739;28;20205;-63
2022/05/25 06:36:33;;;;;;;23.27;13.73;;;;;;;18.05;100.00;99546.53;5090091;28;20201;-63
2022/05/25 06:39:00;;;;;;;24.67;13.27;;;;;;;18.18;100.00;99551.03;5089831;28;20202;-64
2022/05/25 06:41:28;;;;;;;19.73;12.83;;;;;;;18.25;100.00;99560.25;5089673;28;20222;-63
2022/05/25 06:43:55;;;;;;;22.87;13.93;;;;;;;18.37;100.00;99559.53;5089280;28;20195;-64
2022/05/25 06:46:22;;;;;;;28.87;13.27;;;;;;;18.50;100.00;99556.09;5088311;28;20219;-64
2022/05/25 06:48:52;;;;;;;24.63;13.40;;;;;;;18.60;100.00;99556.41;5089582;28;20205;-64
2022/05/25 06:51:22;;;;;;;23.75;12.45;;;;;;;18.79;100.00;99564.84;5089756;28;20214;-58
2022/05/25 06:53:50;;;;;;;24.80;13.27;;;;;;;18.93;100.00;99560.50;5089651;28;20220;-59
2022/05/25 06:56:17;;;;;;;24.17;13.82;;;;;;;19.06;100.00;99564.91;5089471;28;20191;-58
2022/05/25 06:58:45;;;;;;;27.65;14.07;;;;;;;19.14;100.00;99561.78;5089368;28;20199;-58
2022/05/25 07:01:12;;;;;;;26.02;14.48;;;;;;;19.19;100.00;99575.50;5089706;28;20206;-58
2022/05/25 07:03:39;;;;;;;26.73;14.48;;;;;;;19.27;100.00;99575.03;5089862;28;20196;-59
2022/05/25 07:06:09;;;;;;;26.33;14.57;;;;;;;19.30;100.00;99575.66;5089507;28;20215;-57
2022/05/25 07:08:36;;;;;;;25.77;14.10;;;;;;;19.41;100.00;99578.44;5088882;28;20202;-57
2022/05/25 07:11:04;;;;;;;29.17;15.00;;;;;;;19.55;100.00;99567.91;5088819;28;20199;-57
2022/05/25 07:13:32;;;;;;;29.48;15.75;;;;;;;19.69;100.00;99568.81;5089164;28;20195;-57
2022/05/25 07:16:01;;;;;;;33.22;15.80;;;;;;;19.52;100.00;99556.75;5090757;28;20195;-57
2022/05/25 07:18:29;;;;;;;24.52;15.00;;;;;;;19.92;100.00;99576.88;5093337;28;20230;-57
2022/05/25 07:20:59;;;;;;;24.55;15.20;;;;;;;19.92;100.00;99557.59;5093224;28;20199;-57
2022/05/25 07:23:28;;;;;;;23.60;15.32;;;;;;;19.94;100.00;99558.34;5093444;28;20663;-57
2022/05/25 07:25:55;;;;;;;21.13;14.70;;;;;;;20.17;100.00;99578.75;5093303;28;20280;-58
2022/05/25 07:28:22;;;;;;;25.98;14.93;;;;;;;20.28;100.00;99573.59;5093195;28;20195;-58
2022/05/25 07:30:53;;;;;;;26.20;14.07;;;;;;;20.46;100.00;99581.22;5093423;28;20195;-64
2022/05/25 07:33:20;;;;;;;22.00;13.55;;;;;;;20.59;100.00;99595.25;5092991;28;20278;-58
2022/05/25 07:35:47;;;;;;;23.85;14.38;;;;;;;20.51;100.00;99581.75;5093437;28;20280;-57
2022/05/25 07:38:14;;;;;;;24.35;13.10;;;;;;;20.61;100.00;99591.56;5092949;28;20294;-58
2022/05/25 07:40:43;;;;;;;22.63;13.40;;;;;;;20.53;100.00;99588.63;5093055;28;20281;-57
2022/05/25 07:43:15;;;;;;;21.27;12.95;;;;;;;20.54;100.00;99592.09;5092945;28;20206;-57
2022/05/25 07:45:42;;;;;;;21.88;12.50;;;;;;;20.63;100.00;99602.00;5092672;28;20270;-57
2022/05/25 07:48:09;;;;;;;16.05;11.80;;;;;;;20.52;100.00;99592.19;5092576;28;20203;-58
2022/05/25 07:50:37;;;;;;;28.30;12.77;;;;;;;20.59;100.00;99593.47;5092974;28;20195;-57
2022/05/25 07:53:55;;;;;;;20.58;12.60;;;;;;;20.78;100.00;99598.31;5092442;28;20204;-56
2022/05/25 07:55:55;;;;;;;20.08;12.43;;;;;;;20.84;100.00;99597.03;5092387;28;20264;-58
2022/05/25 07:58:23;;;;;;;20.15;12.95;;;;;;;20.85;100.00;99590.81;5092218;28;20217;-57
2022/05/25 08:00:54;;;;;;;28.75;12.68;;;;;;;20.91;100.00;99583.31;5092641;28;20210;-57
2022/05/25 08:06:06;;;;;;;19.27;12.93;;;;;;;20.70;100.00;99591.88;5092380;28;20222;-57
2022/05/25 08:08:33;;;;;;;16.45;12.32;;;;;;;20.75;100.00;99593.25;5092513;28;20687;-57
2022/05/25 08:11:07;;;;;;;17.77;12.57;;;;;;;20.90;100.00;99592.16;5092213;28;20672;-58
2022/05/25 08:13:36;;;;;;;15.32;11.88;;;;;;;21.07;100.00;99598.06;5091704;28;20205;-57
2022/05/25 08:16:03;;;;;;;20.08;12.77;;;;;;;21.13;100.00;99598.47;5090831;28;20282;-56
2022/05/25 08:18:30;;;;;;;17.33;12.27;;;;;;;20.99;100.00;99580.97;5092381;28;20201;-58
2022/05/25 08:20:57;;;;;;;15.85;11.32;;;;;;;21.14;100.00;99604.59;5092141;28;20192;-58
2022/05/25 08:23:24;;;;;;;20.10;12.13;;;;;;;21.29;100.00;99608.81;5091989;28;20195;-58
2022/05/25 08:25:51;;;;;;;14.48;11.93;;;;;;;21.44;100.00;99617.47;5092439;28;20601;-58
2022/05/25 08:28:19;;;;;;;19.58;12.93;;;;;;;21.49;100.00;99616.16;5091541;28;20199;-57
2022/05/25 08:30:46;;;;;;;17.30;12.13;;;;;;;21.69;100.00;99626.13;5092251;28;20278;-58
2022/05/25 08:33:17;;;;;;;23.30;12.07;;;;;;;21.63;100.00;99631.00;5091970;28;20202;-58
2022/05/25 08:35:45;;;;;;;18.35;12.18;;;;;;;21.87;100.00;99623.94;5092030;28;20195;-57
2022/05/25 08:38:12;;;;;;;20.42;12.98;;;;;;;21.98;100.00;99628.44;5092040;28;20707;-58
2022/05/25 08:40:39;;;;;;;16.48;11.50;;;;;;;22.17;100.00;99623.50;5091974;28;20195;-58
2022/05/25 08:43:13;;;;;;;13.68;11.70;;;;;;;22.20;100.00;99627.72;5091716;28;20195;-57
2022/05/25 08:45:44;;;;;;;16.08;11.30;;;;;;;22.31;100.00;99640.97;5088142;28;20231;-57
2022/05/25 08:48:13;;;;;;;12.73;11.35;;;;;;;22.28;100.00;99627.97;5090483;28;20584;-57
2022/05/25 08:50:42;;;;;;;11.80;10.27;;;;;;;22.24;100.00;99630.00;5090556;28;20191;-57
2022/05/25 08:53:12;;;;;;;12.35;11.00;;;;;;;22.41;100.00;99632.22;5090641;28;20223;-58
2022/05/25 08:55:56;;;;;;;19.58;11.63;;;;;;;22.55;100.00;99617.09;5088765;28;20719;-57
2022/05/25 08:58:26;;;;;;;15.82;10.18;;;;;;;22.80;100.00;99632.78;5090719;28;20206;-58
2022/05/25 09:00:56;;;;;;;11.65;10.20;;;;;;;22.90;100.00;99617.06;5083578;28;20206;-57
2022/05/25 09:03:32;;;;;;;16.20;11.25;;;;;;;22.96;100.00;99633.31;5090759;28;20201;-58
2022/05/25 09:06:06;;;;;;;13.25;10.45;;;;;;;22.90;100.00;99628.50;5091366;28;20221;-60
2022/05/25 09:08:44;;;;;;;12.07;10.90;;;;;;;22.88;100.00;99611.91;5091420;28;20671;-59
2022/05/25 09:11:15;;;;;;;16.00;11.43;;;;;;;23.03;100.00;99625.72;5091035;28;20214;-59
2022/05/25 09:13:48;;;;;;;13.05;11.73;;;;;;;23.03;100.00;99612.47;5091412;28;20246;-58
2022/05/25 09:16:19;;;;;;;13.07;11.30;;;;;;;23.04;100.00;99625.59;5091068;28;20206;-65
2022/05/25 09:18:56;;;;;;;13.75;12.35;;;;;;;23.32;100.00;99626.91;5091014;28;20252;-67
2022/05/25 09:21:27;;;;;;;13.10;11.80;;;;;;;23.64;100.00;99618.22;5091113;28;20719;-61
2022/05/25 09:24:00;;;;;;;13.77;12.55;;;;;;;23.75;99.38;99626.13;5091155;28;20667;-65
2022/05/25 09:26:26;;;;;;;13.98;11.85;;;;;;;23.64;99.89;99624.38;5090947;28;20288;-67
2022/05/25 09:28:58;;;;;;;14.18;12.73;;;;;;;23.52;100.00;99609.44;5091001;28;20654;-58
2022/05/25 09:31:33;;;;;;;15.60;12.73;;;;;;;23.65;100.00;99623.41;5091083;28;20324;-58
2022/05/25 09:34:05;;;;;;;16.33;13.80;;;;;;;23.46;100.00;99608.13;5090782;28;20194;-59
2022/05/25 09:36:39;;;;;;;18.67;14.18;;;;;;;23.58;99.76;99622.22;5090869;28;20205;-59
2022/05/25 09:39:14;;;;;;;18.80;15.20;;;;;;;23.53;100.00;99621.75;5084187;28;20667;-58
2022/05/25 09:41:43;;;;;;;16.90;15.10;;;;;;;23.38;100.00;99602.56;5086575;28;20695;-60
2022/05/25 09:44:13;;;;;;;19.60;16.58;;;;;;;23.39;100.00;99608.72;5089192;28;20195;-65
2022/05/25 09:46:45;;;;;;;22.20;15.50;;;;;;;23.57;100.00;99615.22;5088983;28;20729;-65
2022/05/25 09:49:25;;;;;;;20.77;14.73;;;;;;;23.64;100.00;99612.91;5089140;28;20199;-64
2022/05/25 09:51:54;;;;;;;18.13;15.73;;;;;;;23.50;100.00;99614.03;5088157;28;20206;-65
2022/05/25 09:54:27;;;;;;;20.23;16.00;;;;;;;23.45;100.00;99616.19;5086676;28;20206;-63
2022/05/25 09:56:59;;;;;;;18.42;15.60;;;;;;;23.47;100.00;99590.41;5089349;28;20226;-65
2022/05/25 09:59:31;;;;;;;18.23;16.25;;;;;;;23.46;100.00;99616.06;5086968;28;20277;-58
2022/05/25 10:02:00;;;;;;;22.52;17.42;;;;;;;23.54;100.00;99610.19;5088922;28;20198;-59
2022/05/25 10:04:51;;;;;;;20.80;16.50;;;;;;;23.67;100.00;99607.38;5088934;28;20187;-65
2022/05/25 10:07:21;;;;;;;27.67;19.13;;;;;;;23.85;100.00;99600.56;5088470;28;20728;-65
2022/05/25 10:09:51;;;;;;;27.75;19.13;;;;;;;24.01;99.47;99598.34;5089060;28;20195;-65
2022/05/25 10:12:25;;;;;;;22.45;18.88;;;;;;;24.03;99.48;99600.88;5089011;28;20195;-65
2022/05/25 10:14:58;;;;;;;24.25;19.40;;;;;;;23.95;98.25;99596.19;5089011;28;20199;-65
2022/05/25 10:17:38;;;;;;;24.27;19.40;;;;;;;23.89;98.81;99589.59;5086744;28;20218;-65
2022/05/25 10:20:22;;;;;;;27.33;20.05;;;;;;;24.19;99.90;99598.59;5086458;28;20704;-65
2022/05/25 10:22:52;;;;;;;23.15;19.55;;;;;;;24.11;98.20;99601.06;5087356;28;20598;-64
2022/05/25 10:25:28;;;;;;;23.25;20.10;;;;;;;24.15;97.81;99610.47;5088873;28;20270;-64
2022/05/25 10:27:57;;;;;;;26.95;19.77;;;;;;;24.19;98.22;99609.22;5088718;28;20195;-64
2022/05/25 10:38:52;;;;;;;32.20;22.85;;;;;;;24.23;97.89;99584.16;5087279;28;20642;-59
2022/05/25 10:41:43;;;;;;;27.05;21.95;;;;;;;24.16;97.73;99585.59;5088236;28;20191;-59
2022/05/25 10:44:18;;;;;;;31.17;22.77;;;;;;;24.37;97.30;99581.19;5086980;28;20282;-58
2022/05/25 10:46:55;;;;;;;27.42;21.95;;;;;;;24.49;95.97;99584.63;5083333;28;20253;-64
2022/05/25 10:49:30;;;;;;;28.88;22.02;;;;;;;24.72;94.74;99578.16;5085490;28;20183;-63
2022/05/25 10:52:01;;;;;;;29.23;22.10;;;;;;;24.66;95.30;99577.84;5092576;28;20199;-63
2022/05/25 10:54:47;;;;;;;28.77;22.00;;;;;;;24.60;94.43;99582.69;5092862;28;20199;-63
2022/05/25 10:57:58;;;;;;;26.35;22.35;;;;;;;24.75;94.31;99583.19;5091474;28;20199;-63
2022/05/25 11:00:37;;;;;;;34.33;23.27;;;;;;;24.80;94.54;99590.78;5083629;28;20203;-64
2022/05/25 11:03:25;;;;;;;32.30;25.35;;;;;;;25.06;93.95;99588.53;5089995;28;20191;-62
2022/05/25 11:05:58;;;;;;;29.92;23.00;;;;;;;25.08;93.43;99575.94;5090957;28;20321;-64
2022/05/25 11:08:43;;;;;;;32.28;24.90;;;;;;;24.86;93.73;99590.22;5090379;28;20285;-64
2022/05/25 11:11:20;;;;;;;32.75;24.50;;;;;;;24.84;93.40;99578.91;5090848;28;20194;-64
2022/05/25 11:14:07;;;;;;;33.97;24.25;;;;;;;24.91;93.51;99585.38;5090450;28;20203;-58
2022/05/25 11:16:49;;;;;;;32.13;24.20;;;;;;;24.87;93.61;99562.72;5091145;28;20207;-59
2022/05/25 11:19:36;;;;;;;34.53;24.30;;;;;;;24.97;93.33;99582.22;5091591;28;20840;-64
2022/05/25 11:22:25;;;;;;;31.92;23.13;;;;;;;24.97;93.75;99571.59;5089460;28;20683;-64
2022/05/25 11:25:18;;;;;;;34.45;23.73;;;;;;;25.10;93.84;99577.50;5091171;28;20209;-63
2022/05/25 11:28:06;;;;;;;34.55;23.90;;;;;;;24.80;93.82;99566.88;5087489;28;20245;-64
2022/05/25 11:30:42;;;;;;;30.48;24.42;;;;;;;24.67;94.50;99550.34;5090534;28;20555;-65
2022/05/25 11:33:20;;;;;;;32.92;25.25;;;;;;;24.81;94.80;99565.91;5088496;28;20416;-65
2022/05/25 11:35:58;;;;;;;33.10;23.73;;;;;;;24.69;94.07;99559.00;5088555;28;20194;-65
2022/05/25 11:38:41;;;;;;;27.60;23.30;;;;;;;24.73;93.98;99553.28;5088982;28;20187;-65
2022/05/25 11:41:22;;;;;;;38.30;25.90;;;;;;;24.81;93.66;99555.28;5089436;28;20199;-64
2022/05/25 11:44:06;;;;;;;32.90;23.77;;;;;;;24.69;95.04;99548.38;5087023;28;20198;-65
2022/05/25 11:46:42;;;;;;;29.42;23.70;;;;;;;24.66;95.43;99543.34;5089005;28;20223;-64
2022/05/25 11:49:40;;;;;;;36.20;25.50;;;;;;;24.66;95.93;99541.53;5089527;28;20221;-58
2022/05/25 11:52:23;;;;;;;32.30;22.65;;;;;;;24.58;96.02;99558.13;5089194;28;20199;-59
2022/05/25 11:55:08;;;;;;;32.13;25.05;;;;;;;24.52;95.83;99553.31;5089712;28;20659;-59
2022/05/25 11:57:40;;;;;;;34.70;25.83;;;;;;;24.81;94.71;99560.59;5090528;28;20668;-59